sensor_id;sensor_type;location;lat;lon;timestamp;pressure;altitude;pressure_sealevel;temperature;humidity
12951;BME280;6540;50.858;7.232;2022-12-08T00:00:21;51838.41;;;-142.34;28.29
12951;BME280;6540;50.858;7.232;2022-12-08T00:02:46;51842.44;;;-142.34;28.44
12951;BME280;6540;50.858;7.232;2022-12-08T00:05:15;51866.66;;;-142.34;28.37
12951;BME280;6540;50.858;7.232;2022-12-08T00:07:59;51824.28;;;-142.34;28.57
12951;BME280;6540;50.858;7.232;2022-12-08T00:10:43;51822.25;;;-142.34;28.73
12951;BME280;6540;50.858;7.232;2022-12-08T00:13:09;51866.66;;;-142.34;28.37
12951;BME280;6540;50.858;7.232;2022-12-08T00:15:34;51838.41;;;-142.34;29.11
12951;BME280;6540;50.858;7.232;2022-12-08T00:18:00;51848.50;;;-142.34;28.75
12951;BME280;6540;50.858;7.232;2022-12-08T00:20:25;51890.84;;;-142.34;28.20
12951;BME280;6540;50.858;7.232;2022-12-08T00:22:51;51866.66;;;-142.34;28.88
12951;BME280;6540;50.858;7.232;2022-12-08T00:25:16;51886.81;;;-142.34;28.73
12951;BME280;6540;50.858;7.232;2022-12-08T00:27:41;51886.81;;;-142.34;28.60
12951;BME280;6540;50.858;7.232;2022-12-08T00:30:07;51862.63;;;-142.34;29.52
12951;BME280;6540;50.858;7.232;2022-12-08T00:32:33;51896.91;;;-142.34;28.55
12951;BME280;6540;50.858;7.232;2022-12-08T00:34:58;51882.78;;;-142.34;28.75
12951;BME280;6540;50.858;7.232;2022-12-08T00:37:23;51870.69;;;-142.34;28.68
12951;BME280;6540;50.858;7.232;2022-12-08T00:39:49;51874.72;;;-142.34;29.39
12951;BME280;6540;50.858;7.232;2022-12-08T00:42:14;51870.69;;;-142.34;27.82
12951;BME280;6540;50.858;7.232;2022-12-08T00:44:41;51856.56;;;-142.34;28.37
12951;BME280;6540;50.858;7.232;2022-12-08T00:47:07;51890.84;;;-142.34;29.02
12951;BME280;6540;50.858;7.232;2022-12-08T00:49:32;51862.63;;;-142.34;29.03
12951;BME280;6540;50.858;7.232;2022-12-08T00:51:58;51874.72;;;-142.34;28.46
12951;BME280;6540;50.858;7.232;2022-12-08T00:54:23;51894.88;;;-142.34;29.36
12951;BME280;6540;50.858;7.232;2022-12-08T00:56:49;51882.78;;;-142.34;29.36
12951;BME280;6540;50.858;7.232;2022-12-08T00:59:14;51886.81;;;-142.34;28.83
12951;BME280;6540;50.858;7.232;2022-12-08T01:01:42;51824.28;;;-142.34;29.61
12951;BME280;6540;50.858;7.232;2022-12-08T01:04:10;51842.44;;;-142.34;28.66
12951;BME280;6540;50.858;7.232;2022-12-08T01:06:37;51854.53;;;-142.34;29.60
12951;BME280;6540;50.858;7.232;2022-12-08T01:09:05;51860.59;;;-142.34;29.63
12951;BME280;6540;50.858;7.232;2022-12-08T01:11:32;51864.63;;;-142.34;29.21
12951;BME280;6540;50.858;7.232;2022-12-08T01:13:57;51870.69;;;-142.34;28.88
12951;BME280;6540;50.858;7.232;2022-12-08T01:16:28;51842.44;;;-142.34;28.84
12951;BME280;6540;50.858;7.232;2022-12-08T01:18:54;51882.78;;;-142.34;30.30
12951;BME280;6540;50.858;7.232;2022-12-08T01:21:20;51902.97;;;-142.34;30.04
12951;BME280;6540;50.858;7.232;2022-12-08T01:23:46;51870.69;;;-142.34;28.61
12951;BME280;6540;50.858;7.232;2022-12-08T01:26:13;51854.53;;;-142.34;29.04
12951;BME280;6540;50.858;7.232;2022-12-08T01:28:39;51870.69;;;-142.34;28.80
12951;BME280;6540;50.858;7.232;2022-12-08T01:31:10;51858.56;;;-142.34;29.52
12951;BME280;6540;50.858;7.232;2022-12-08T01:33:35;51870.69;;;-142.34;29.16
12951;BME280;6540;50.858;7.232;2022-12-08T01:36:02;51904.97;;;-142.34;29.85
12951;BME280;6540;50.858;7.232;2022-12-08T01:38:30;51894.88;;;-142.34;29.76
12951;BME280;6540;50.858;7.232;2022-12-08T01:40:55;51896.91;;;-142.34;28.67
12951;BME280;6540;50.858;7.232;2022-12-08T01:43:20;51890.84;;;-142.34;29.19
12951;BME280;6540;50.858;7.232;2022-12-08T01:45:46;51898.94;;;-142.34;28.64
12951;BME280;6540;50.858;7.232;2022-12-08T01:48:19;51890.84;;;-142.34;28.84
12951;BME280;6540;50.858;7.232;2022-12-08T01:50:47;51882.78;;;-142.34;29.57
12951;BME280;6540;50.858;7.232;2022-12-08T01:53:17;51894.88;;;-142.34;29.41
12951;BME280;6540;50.858;7.232;2022-12-08T01:55:49;51868.66;;;-142.34;29.14
12951;BME280;6540;50.858;7.232;2022-12-08T01:58:21;51852.53;;;-142.34;28.29
12951;BME280;6540;50.858;7.232;2022-12-08T02:00:48;51842.44;;;-142.34;28.63
12951;BME280;6540;50.858;7.232;2022-12-08T02:03:19;51894.88;;;-142.34;28.41
12951;BME280;6540;50.858;7.232;2022-12-08T02:05:46;51890.84;;;-142.34;28.95
12951;BME280;6540;50.858;7.232;2022-12-08T02:08:12;51868.66;;;-142.34;28.68
12951;BME280;6540;50.858;7.232;2022-12-08T02:10:40;51860.59;;;-142.34;29.75
12951;BME280;6540;50.858;7.232;2022-12-08T02:13:10;51848.50;;;-142.34;28.56
12951;BME280;6540;50.858;7.232;2022-12-08T02:34:40;51898.94;;;-142.34;28.85
12951;BME280;6540;50.858;7.232;2022-12-08T02:39:49;51898.94;;;-142.34;27.87
12951;BME280;6540;50.858;7.232;2022-12-08T02:45:03;51888.84;;;-142.34;28.09
12951;BME280;6540;50.858;7.232;2022-12-08T02:47:31;51894.88;;;-142.34;28.90
12951;BME280;6540;50.858;7.232;2022-12-08T02:49:58;51872.69;;;-142.34;29.01
12951;BME280;6540;50.858;7.232;2022-12-08T02:54:56;51880.78;;;-142.34;28.68
12951;BME280;6540;50.858;7.232;2022-12-08T03:00:16;51856.56;;;-142.34;28.85
12951;BME280;6540;50.858;7.232;2022-12-08T03:05:15;51907.00;;;-142.34;29.79
12951;BME280;6540;50.858;7.232;2022-12-08T03:10:32;51898.94;;;-142.34;29.02
12951;BME280;6540;50.858;7.232;2022-12-08T03:13:31;51915.06;;;-142.34;28.19
12951;BME280;6540;50.858;7.232;2022-12-08T03:16:00;51886.81;;;-142.34;28.80
12951;BME280;6540;50.858;7.232;2022-12-08T03:18:29;51882.78;;;-142.34;28.84
12951;BME280;6540;50.858;7.232;2022-12-08T03:20:56;51874.72;;;-142.34;29.17
12951;BME280;6540;50.858;7.232;2022-12-08T03:23:23;51878.75;;;-142.34;28.92
12951;BME280;6540;50.858;7.232;2022-12-08T03:25:59;51870.69;;;-142.34;28.61
12951;BME280;6540;50.858;7.232;2022-12-08T03:28:28;51866.66;;;-142.34;29.46
12951;BME280;6540;50.858;7.232;2022-12-08T03:30:56;51874.72;;;-142.34;28.63
12951;BME280;6540;50.858;7.232;2022-12-08T03:33:28;51850.50;;;-142.34;28.97
12951;BME280;6540;50.858;7.232;2022-12-08T03:35:54;51896.91;;;-142.34;29.48
12951;BME280;6540;50.858;7.232;2022-12-08T03:38:21;51882.78;;;-142.34;29.81
12951;BME280;6540;50.858;7.232;2022-12-08T03:40:47;51884.81;;;-142.34;29.30
12951;BME280;6540;50.858;7.232;2022-12-08T03:43:32;51862.63;;;-142.34;29.37
12951;BME280;6540;50.858;7.232;2022-12-08T03:45:57;51874.72;;;-142.34;29.52
12951;BME280;6540;50.858;7.232;2022-12-08T03:48:22;51864.63;;;-142.34;29.46
12951;BME280;6540;50.858;7.232;2022-12-08T03:50:48;51902.97;;;-142.34;28.54
12951;BME280;6540;50.858;7.232;2022-12-08T03:53:13;51888.84;;;-142.34;27.83
12951;BME280;6540;50.858;7.232;2022-12-08T03:55:38;51892.88;;;-142.34;28.68
12951;BME280;6540;50.858;7.232;2022-12-08T03:58:04;51878.75;;;-142.34;27.80
12951;BME280;6540;50.858;7.232;2022-12-08T04:00:29;51878.75;;;-142.34;27.78
12951;BME280;6540;50.858;7.232;2022-12-08T04:02:54;51902.97;;;-142.34;28.16
12951;BME280;6540;50.858;7.232;2022-12-08T04:05:20;51890.84;;;-142.34;28.63
12951;BME280;6540;50.858;7.232;2022-12-08T04:07:45;51886.81;;;-142.34;28.24
12951;BME280;6540;50.858;7.232;2022-12-08T04:10:10;51902.97;;;-142.34;29.00
12951;BME280;6540;50.858;7.232;2022-12-08T04:12:36;51882.78;;;-142.34;28.51
12951;BME280;6540;50.858;7.232;2022-12-08T04:15:01;51876.72;;;-142.34;29.82
12951;BME280;6540;50.858;7.232;2022-12-08T04:17:27;51890.84;;;-142.34;28.81
12951;BME280;6540;50.858;7.232;2022-12-08T04:19:52;51909.00;;;-142.34;28.57
12951;BME280;6540;50.858;7.232;2022-12-08T04:22:17;51894.88;;;-142.34;28.61
12951;BME280;6540;50.858;7.232;2022-12-08T04:24:43;51840.41;;;-142.34;29.55
12951;BME280;6540;50.858;7.232;2022-12-08T04:27:08;51886.81;;;-142.34;29.25
12951;BME280;6540;50.858;7.232;2022-12-08T04:29:33;51876.72;;;-142.34;29.78
12951;BME280;6540;50.858;7.232;2022-12-08T04:31:58;51884.81;;;-142.34;31.23
12951;BME280;6540;50.858;7.232;2022-12-08T04:34:24;51923.13;;;-142.34;29.50
12951;BME280;6540;50.858;7.232;2022-12-08T04:36:49;51911.03;;;-142.34;29.67
12951;BME280;6540;50.858;7.232;2022-12-08T04:39:14;51890.84;;;-142.34;30.48
12951;BME280;6540;50.858;7.232;2022-12-08T04:41:40;51902.97;;;-142.34;29.85
12951;BME280;6540;50.858;7.232;2022-12-08T04:44:05;51919.09;;;-142.34;30.20
12951;BME280;6540;50.858;7.232;2022-12-08T04:46:30;51902.97;;;-142.34;31.19
12951;BME280;6540;50.858;7.232;2022-12-08T04:48:56;51915.06;;;-142.34;29.46
12951;BME280;6540;50.858;7.232;2022-12-08T04:51:21;51911.03;;;-142.34;28.76
12951;BME280;6540;50.858;7.232;2022-12-08T04:53:46;51913.03;;;-142.34;31.03
12951;BME280;6540;50.858;7.232;2022-12-08T04:56:13;51904.97;;;-142.34;30.35
12951;BME280;6540;50.858;7.232;2022-12-08T04:58:39;51898.94;;;-142.34;30.27
12951;BME280;6540;50.858;7.232;2022-12-08T05:01:05;51915.06;;;-142.34;29.26
12951;BME280;6540;50.858;7.232;2022-12-08T05:03:30;51919.09;;;-142.34;30.13
12951;BME280;6540;50.858;7.232;2022-12-08T05:05:58;51890.84;;;-142.34;29.58
12951;BME280;6540;50.858;7.232;2022-12-08T05:08:23;51894.88;;;-142.34;30.39
12951;BME280;6540;50.858;7.232;2022-12-08T05:10:49;51886.81;;;-142.34;30.21
12951;BME280;6540;50.858;7.232;2022-12-08T05:13:14;51870.69;;;-142.34;29.77
12951;BME280;6540;50.858;7.232;2022-12-08T05:15:40;51890.84;;;-142.34;28.75
12951;BME280;6540;50.858;7.232;2022-12-08T05:18:05;51894.88;;;-142.34;30.00
12951;BME280;6540;50.858;7.232;2022-12-08T05:20:31;51909.00;;;-142.34;30.28
12951;BME280;6540;50.858;7.232;2022-12-08T05:22:56;51898.94;;;-142.34;30.19
12951;BME280;6540;50.858;7.232;2022-12-08T05:25:22;51933.22;;;-142.34;31.87
12951;BME280;6540;50.858;7.232;2022-12-08T05:27:47;51900.94;;;-142.34;31.38
12951;BME280;6540;50.858;7.232;2022-12-08T05:30:13;51890.84;;;-142.34;31.62
12951;BME280;6540;50.858;7.232;2022-12-08T05:32:38;51866.66;;;-142.34;31.73
12951;BME280;6540;50.858;7.232;2022-12-08T05:35:04;51902.97;;;-142.34;31.64
12951;BME280;6540;50.858;7.232;2022-12-08T05:37:29;51898.94;;;-142.34;30.53
12951;BME280;6540;50.858;7.232;2022-12-08T05:39:55;51935.25;;;-142.34;29.26
12951;BME280;6540;50.858;7.232;2022-12-08T05:42:20;51902.97;;;-142.34;30.33
12951;BME280;6540;50.858;7.232;2022-12-08T05:44:45;51913.03;;;-142.34;29.97
12951;BME280;6540;50.858;7.232;2022-12-08T05:47:11;51919.09;;;-142.34;29.28
12951;BME280;6540;50.858;7.232;2022-12-08T05:49:36;51919.09;;;-142.34;29.46
12951;BME280;6540;50.858;7.232;2022-12-08T05:52:01;51898.94;;;-142.34;30.16
12951;BME280;6540;50.858;7.232;2022-12-08T05:54:27;51902.97;;;-142.34;29.24
12951;BME280;6540;50.858;7.232;2022-12-08T05:56:52;51927.16;;;-142.34;29.89
12951;BME280;6540;50.858;7.232;2022-12-08T05:59:18;51919.09;;;-142.34;29.78
12951;BME280;6540;50.858;7.232;2022-12-08T06:01:43;51884.81;;;-142.34;29.82
12951;BME280;6540;50.858;7.232;2022-12-08T06:04:09;51860.59;;;-142.34;29.95
12951;BME280;6540;50.858;7.232;2022-12-08T06:06:34;51907.00;;;-142.34;29.87
12951;BME280;6540;50.858;7.232;2022-12-08T06:09:02;51890.84;;;-142.34;29.88
12951;BME280;6540;50.858;7.232;2022-12-08T06:11:29;51874.72;;;-142.34;29.28
12951;BME280;6540;50.858;7.232;2022-12-08T06:13:56;51898.94;;;-142.34;29.48
12951;BME280;6540;50.858;7.232;2022-12-08T06:16:22;51886.81;;;-142.34;30.87
12951;BME280;6540;50.858;7.232;2022-12-08T06:18:47;51902.97;;;-142.34;29.55
12951;BME280;6540;50.858;7.232;2022-12-08T06:21:13;51907.00;;;-142.34;30.44
12951;BME280;6540;50.858;7.232;2022-12-08T06:23:39;51917.06;;;-142.34;29.55
12951;BME280;6540;50.858;7.232;2022-12-08T06:26:11;51900.94;;;-142.34;30.52
12951;BME280;6540;50.858;7.232;2022-12-08T06:28:37;51913.03;;;-142.34;31.77
12951;BME280;6540;50.858;7.232;2022-12-08T06:31:08;51886.81;;;-142.34;29.34
12951;BME280;6540;50.858;7.232;2022-12-08T06:33:34;51874.72;;;-142.34;31.11
12951;BME280;6540;50.858;7.232;2022-12-08T06:35:59;51919.09;;;-142.34;30.02
12951;BME280;6540;50.858;7.232;2022-12-08T06:38:24;51858.56;;;-142.34;30.89
12951;BME280;6540;50.858;7.232;2022-12-08T06:40:54;51911.03;;;-142.34;30.17
12951;BME280;6540;50.858;7.232;2022-12-08T06:43:20;51921.13;;;-142.34;31.06
12951;BME280;6540;50.858;7.232;2022-12-08T06:45:45;51892.88;;;-142.34;30.53
12951;BME280;6540;50.858;7.232;2022-12-08T06:48:10;51913.03;;;-142.34;30.11
12951;BME280;6540;50.858;7.232;2022-12-08T06:50:36;51925.16;;;-142.34;30.10
12951;BME280;6540;50.858;7.232;2022-12-08T06:53:01;51904.97;;;-142.34;32.16
12951;BME280;6540;50.858;7.232;2022-12-08T06:55:26;51913.03;;;-142.34;31.26
12951;BME280;6540;50.858;7.232;2022-12-08T06:57:52;51943.31;;;-142.34;29.87
12951;BME280;6540;50.858;7.232;2022-12-08T07:00:18;51870.69;;;-142.34;31.47
12951;BME280;6540;50.858;7.232;2022-12-08T07:02:43;51927.16;;;-142.34;30.98
12951;BME280;6540;50.858;7.232;2022-12-08T07:05:09;51943.31;;;-142.34;30.78
12951;BME280;6540;50.858;7.232;2022-12-08T07:07:34;51894.88;;;-142.34;30.35
12951;BME280;6540;50.858;7.232;2022-12-08T07:09:59;51939.28;;;-142.34;32.40
12951;BME280;6540;50.858;7.232;2022-12-08T07:12:25;51896.91;;;-142.34;30.51
12951;BME280;6540;50.858;7.232;2022-12-08T07:14:50;51923.13;;;-142.34;30.29
12951;BME280;6540;50.858;7.232;2022-12-08T07:17:15;51935.25;;;-142.34;30.29
12951;BME280;6540;50.858;7.232;2022-12-08T07:19:44;51886.81;;;-142.34;30.94
12951;BME280;6540;50.858;7.232;2022-12-08T07:22:09;51943.31;;;-142.34;31.82
12951;BME280;6540;50.858;7.232;2022-12-08T07:24:34;51921.13;;;-142.34;29.34
12951;BME280;6540;50.858;7.232;2022-12-08T07:27:00;51886.81;;;-142.34;29.17
12951;BME280;6540;50.858;7.232;2022-12-08T07:29:28;51894.88;;;-142.34;29.53
12951;BME280;6540;50.858;7.232;2022-12-08T07:31:53;51907.00;;;-142.34;30.02
12951;BME280;6540;50.858;7.232;2022-12-08T07:34:19;51943.31;;;-142.34;31.49
12951;BME280;6540;50.858;7.232;2022-12-08T07:36:44;51921.13;;;-142.34;30.26
12951;BME280;6540;50.858;7.232;2022-12-08T07:39:09;51939.28;;;-142.34;30.32
12951;BME280;6540;50.858;7.232;2022-12-08T07:41:35;51896.91;;;-142.34;29.99
12951;BME280;6540;50.858;7.232;2022-12-08T07:44:00;51915.06;;;-142.34;30.12
12951;BME280;6540;50.858;7.232;2022-12-08T07:46:26;51904.97;;;-142.34;30.92
12951;BME280;6540;50.858;7.232;2022-12-08T07:48:52;51858.56;;;-142.34;30.99
12951;BME280;6540;50.858;7.232;2022-12-08T07:51:18;51909.00;;;-142.34;30.75
12951;BME280;6540;50.858;7.232;2022-12-08T07:53:46;51904.97;;;-142.34;31.89
12951;BME280;6540;50.858;7.232;2022-12-08T07:56:12;51915.06;;;-142.34;32.45
12951;BME280;6540;50.858;7.232;2022-12-08T07:58:38;51874.72;;;-142.34;31.57
12951;BME280;6540;50.858;7.232;2022-12-08T08:01:04;51888.84;;;-142.34;30.85
12951;BME280;6540;50.858;7.232;2022-12-08T08:03:32;51890.84;;;-142.34;31.62
12951;BME280;6540;50.858;7.232;2022-12-08T08:06:02;51890.84;;;-142.34;29.84
12951;BME280;6540;50.858;7.232;2022-12-08T08:08:28;51927.16;;;-142.34;29.79
12951;BME280;6540;50.858;7.232;2022-12-08T08:10:53;51951.38;;;-142.34;29.78
12951;BME280;6540;50.858;7.232;2022-12-08T08:13:19;51904.97;;;-142.34;30.82
12951;BME280;6540;50.858;7.232;2022-12-08T08:15:44;51878.75;;;-142.34;30.91
12951;BME280;6540;50.858;7.232;2022-12-08T08:18:09;51931.19;;;-142.34;31.71
12951;BME280;6540;50.858;7.232;2022-12-08T08:20:35;51874.72;;;-142.34;32.21
12951;BME280;6540;50.858;7.232;2022-12-08T08:23:00;51943.31;;;-142.34;30.19
12951;BME280;6540;50.858;7.232;2022-12-08T08:25:25;51911.03;;;-142.34;30.66
12951;BME280;6540;50.858;7.232;2022-12-08T08:27:51;51929.19;;;-142.34;31.48
12951;BME280;6540;50.858;7.232;2022-12-08T08:30:16;51915.06;;;-142.34;30.82
12951;BME280;6540;50.858;7.232;2022-12-08T08:32:42;51898.94;;;-142.34;29.83
12951;BME280;6540;50.858;7.232;2022-12-08T08:35:08;51894.88;;;-142.34;30.68
12951;BME280;6540;50.858;7.232;2022-12-08T08:37:33;51900.94;;;-142.34;32.51
12951;BME280;6540;50.858;7.232;2022-12-08T08:39:59;51921.13;;;-142.34;32.17
12951;BME280;6540;50.858;7.232;2022-12-08T08:42:24;51921.13;;;-142.34;30.65
12951;BME280;6540;50.858;7.232;2022-12-08T08:44:50;51894.88;;;-142.34;32.40
12951;BME280;6540;50.858;7.232;2022-12-08T08:47:15;51943.31;;;-142.34;33.15
12951;BME280;6540;50.858;7.232;2022-12-08T08:49:40;51915.06;;;-142.34;31.43
12951;BME280;6540;50.858;7.232;2022-12-08T08:52:06;51933.22;;;-142.34;30.40
12951;BME280;6540;50.858;7.232;2022-12-08T08:54:31;51931.19;;;-142.34;31.04
12951;BME280;6540;50.858;7.232;2022-12-08T08:57:00;51931.19;;;-142.34;31.96
12951;BME280;6540;50.858;7.232;2022-12-08T08:59:26;51935.25;;;-142.34;30.81
12951;BME280;6540;50.858;7.232;2022-12-08T09:01:53;51959.44;;;-142.34;31.84
12951;BME280;6540;50.858;7.232;2022-12-08T09:04:19;51931.19;;;-142.34;29.95
12951;BME280;6540;50.858;7.232;2022-12-08T09:06:45;51909.00;;;-142.34;29.09
12951;BME280;6540;50.858;7.232;2022-12-08T09:09:10;51915.06;;;-142.34;30.72
12951;BME280;6540;50.858;7.232;2022-12-08T09:11:36;51915.06;;;-142.34;30.94
12951;BME280;6540;50.858;7.232;2022-12-08T09:14:02;51888.84;;;-142.34;29.55
12951;BME280;6540;50.858;7.232;2022-12-08T09:16:28;51915.06;;;-142.34;29.75
12951;BME280;6540;50.858;7.232;2022-12-08T09:18:53;51935.25;;;-142.34;29.94
12951;BME280;6540;50.858;7.232;2022-12-08T09:21:21;51902.97;;;-142.34;29.58
12951;BME280;6540;50.858;7.232;2022-12-08T09:23:48;51902.97;;;-142.34;28.79
12951;BME280;6540;50.858;7.232;2022-12-08T09:26:14;51896.91;;;-142.34;28.73
12951;BME280;6540;50.858;7.232;2022-12-08T09:28:39;51913.03;;;-142.34;28.76
12951;BME280;6540;50.858;7.232;2022-12-08T09:31:10;51902.97;;;-142.34;29.23
12951;BME280;6540;50.858;7.232;2022-12-08T09:33:36;51894.88;;;-142.34;29.22
12951;BME280;6540;50.858;7.232;2022-12-08T09:36:02;51886.81;;;-142.34;29.29
12951;BME280;6540;50.858;7.232;2022-12-08T09:38:28;51890.84;;;-142.34;29.80
12951;BME280;6540;50.858;7.232;2022-12-08T09:40:54;51886.81;;;-142.34;29.23
12951;BME280;6540;50.858;7.232;2022-12-08T09:45:57;51902.97;;;-142.34;30.21
12951;BME280;6540;50.858;7.232;2022-12-08T09:48:35;51854.53;;;-142.34;31.01
12951;BME280;6540;50.858;7.232;2022-12-08T09:51:02;51872.69;;;-142.34;29.75
12951;BME280;6540;50.858;7.232;2022-12-08T09:53:36;51907.00;;;-142.34;29.41
12951;BME280;6540;50.858;7.232;2022-12-08T09:56:12;51915.06;;;-142.34;29.42
12951;BME280;6540;50.858;7.232;2022-12-08T10:01:40;51888.84;;;-142.34;31.11
12951;BME280;6540;50.858;7.232;2022-12-08T10:04:28;51880.78;;;-142.34;29.29
12951;BME280;6540;50.858;7.232;2022-12-08T10:07:08;51874.72;;;-142.34;30.10
12951;BME280;6540;50.858;7.232;2022-12-08T10:12:27;51909.00;;;-142.34;28.56
12951;BME280;6540;50.858;7.232;2022-12-08T10:18:31;51874.72;;;-142.34;30.29
12951;BME280;6540;50.858;7.232;2022-12-08T10:21:08;51872.69;;;-142.34;30.90
12951;BME280;6540;50.858;7.232;2022-12-08T10:23:38;51896.91;;;-142.34;30.92
12951;BME280;6540;50.858;7.232;2022-12-08T10:26:06;51919.09;;;-142.34;31.74
12951;BME280;6540;50.858;7.232;2022-12-08T10:28:33;51878.75;;;-142.34;32.81
12951;BME280;6540;50.858;7.232;2022-12-08T10:30:58;51925.16;;;-142.34;31.43
12951;BME280;6540;50.858;7.232;2022-12-08T10:33:24;51904.97;;;-142.34;30.30
12951;BME280;6540;50.858;7.232;2022-12-08T10:35:52;51927.16;;;-142.34;30.29
12951;BME280;6540;50.858;7.232;2022-12-08T10:38:38;51907.00;;;-142.34;30.10
12951;BME280;6540;50.858;7.232;2022-12-08T10:43:47;51919.09;;;-142.34;30.58
12951;BME280;6540;50.858;7.232;2022-12-08T10:46:19;51915.06;;;-142.34;30.55
12951;BME280;6540;50.858;7.232;2022-12-08T10:48:54;51886.81;;;-142.34;29.53
12951;BME280;6540;50.858;7.232;2022-12-08T10:51:30;51909.00;;;-142.34;29.45
12951;BME280;6540;50.858;7.232;2022-12-08T10:53:59;51915.06;;;-142.34;29.27
12951;BME280;6540;50.858;7.232;2022-12-08T10:56:29;51907.00;;;-142.34;29.02
12951;BME280;6540;50.858;7.232;2022-12-08T10:59:13;51911.03;;;-142.34;30.78
12951;BME280;6540;50.858;7.232;2022-12-08T11:01:40;51890.84;;;-142.34;30.21
12951;BME280;6540;50.858;7.232;2022-12-08T11:04:12;51909.00;;;-142.34;29.13
12951;BME280;6540;50.858;7.232;2022-12-08T11:06:40;51919.09;;;-142.34;29.41
12951;BME280;6540;50.858;7.232;2022-12-08T11:09:25;51886.81;;;-142.34;27.97
12951;BME280;6540;50.858;7.232;2022-12-08T11:11:59;51894.88;;;-142.34;29.05
12951;BME280;6540;50.858;7.232;2022-12-08T11:14:26;51913.03;;;-142.34;30.35
12951;BME280;6540;50.858;7.232;2022-12-08T11:17:05;51896.91;;;-142.34;29.41
12951;BME280;6540;50.858;7.232;2022-12-08T11:19:36;51892.88;;;-142.34;28.81
12951;BME280;6540;50.858;7.232;2022-12-08T11:22:40;51874.72;;;-142.34;28.80
12951;BME280;6540;50.858;7.232;2022-12-08T11:27:39;51919.09;;;-142.34;30.33
12951;BME280;6540;50.858;7.232;2022-12-08T11:32:40;51874.72;;;-142.34;30.58
12951;BME280;6540;50.858;7.232;2022-12-08T11:35:21;51904.97;;;-142.34;28.97
12951;BME280;6540;50.858;7.232;2022-12-08T11:37:47;51919.09;;;-142.34;31.88
12951;BME280;6540;50.858;7.232;2022-12-08T11:40:21;51866.66;;;-142.34;30.34
12951;BME280;6540;50.858;7.232;2022-12-08T11:45:43;51898.94;;;-142.34;29.47
12951;BME280;6540;50.858;7.232;2022-12-08T11:50:44;51886.81;;;-142.34;29.08
12951;BME280;6540;50.858;7.232;2022-12-08T11:53:26;51878.75;;;-142.34;29.91
12951;BME280;6540;50.858;7.232;2022-12-08T11:55:57;51913.03;;;-142.34;28.29
12951;BME280;6540;50.858;7.232;2022-12-08T11:58:47;51931.19;;;-142.34;28.39
12951;BME280;6540;50.858;7.232;2022-12-08T12:01:20;51882.78;;;-142.34;28.30
12951;BME280;6540;50.858;7.232;2022-12-08T12:03:53;51878.75;;;-142.34;29.36
12951;BME280;6540;50.858;7.232;2022-12-08T12:17:44;51915.06;;;-142.34;28.51
12951;BME280;6540;50.858;7.232;2022-12-08T12:22:44;51923.13;;;-142.34;28.41
12951;BME280;6540;50.858;7.232;2022-12-08T12:25:20;51902.97;;;-142.34;29.58
12951;BME280;6540;50.858;7.232;2022-12-08T12:27:48;51898.94;;;-142.34;29.80
12951;BME280;6540;50.858;7.232;2022-12-08T12:30:21;51900.94;;;-142.34;29.75
12951;BME280;6540;50.858;7.232;2022-12-08T12:32:54;51911.03;;;-142.34;28.41
12951;BME280;6540;50.858;7.232;2022-12-08T12:35:40;51890.84;;;-142.34;28.12
12951;BME280;6540;50.858;7.232;2022-12-08T12:38:17;51911.03;;;-142.34;27.46
12951;BME280;6540;50.858;7.232;2022-12-08T12:41:04;51915.06;;;-142.34;27.41
12951;BME280;6540;50.858;7.232;2022-12-08T12:43:33;51886.81;;;-142.34;28.22
12951;BME280;6540;50.858;7.232;2022-12-08T12:51:57;51890.84;;;-142.34;28.45
12951;BME280;6540;50.858;7.232;2022-12-08T12:54:24;51902.97;;;-142.34;28.51
12951;BME280;6540;50.858;7.232;2022-12-08T12:56:55;51902.97;;;-142.34;28.71
12951;BME280;6540;50.858;7.232;2022-12-08T13:02:37;51894.88;;;-142.34;27.61
12951;BME280;6540;50.858;7.232;2022-12-08T13:05:08;51902.97;;;-142.34;29.69
12951;BME280;6540;50.858;7.232;2022-12-08T13:10:20;51898.94;;;-142.34;28.27
12951;BME280;6540;50.858;7.232;2022-12-08T13:18:27;51900.94;;;-142.34;27.85
12951;BME280;6540;50.858;7.232;2022-12-08T13:21:02;51886.81;;;-142.34;27.73
12951;BME280;6540;50.858;7.232;2022-12-08T13:34:08;51830.34;;;-142.34;29.35
12951;BME280;6540;50.858;7.232;2022-12-08T13:36:42;51894.88;;;-142.34;28.79
12951;BME280;6540;50.858;7.232;2022-12-08T13:45:15;51900.94;;;-142.34;27.90
12951;BME280;6540;50.858;7.232;2022-12-08T13:48:09;51880.78;;;-142.34;28.44
12951;BME280;6540;50.858;7.232;2022-12-08T13:53:03;51874.72;;;-142.34;28.78
12951;BME280;6540;50.858;7.232;2022-12-08T13:55:41;51894.88;;;-142.34;29.10
12951;BME280;6540;50.858;7.232;2022-12-08T13:58:30;51878.75;;;-142.34;28.27
12951;BME280;6540;50.858;7.232;2022-12-08T14:03:43;51886.81;;;-142.34;28.27
12951;BME280;6540;50.858;7.232;2022-12-08T14:06:16;51904.97;;;-142.34;27.58
12951;BME280;6540;50.858;7.232;2022-12-08T14:08:42;51902.97;;;-142.34;28.90
12951;BME280;6540;50.858;7.232;2022-12-08T14:11:17;51913.03;;;-142.34;28.06
12951;BME280;6540;50.858;7.232;2022-12-08T14:13:59;51892.88;;;-142.34;28.00
12951;BME280;6540;50.858;7.232;2022-12-08T14:16:32;51894.88;;;-142.34;27.10
12951;BME280;6540;50.858;7.232;2022-12-08T14:19:05;51862.63;;;-142.34;27.44
12951;BME280;6540;50.858;7.232;2022-12-08T14:21:30;51900.94;;;-142.34;27.81
12951;BME280;6540;50.858;7.232;2022-12-08T14:24:00;51894.88;;;-142.34;27.45
12951;BME280;6540;50.858;7.232;2022-12-08T14:26:30;51896.91;;;-142.34;27.95
12951;BME280;6540;50.858;7.232;2022-12-08T14:28:56;51896.91;;;-142.34;28.49
12951;BME280;6540;50.858;7.232;2022-12-08T14:31:22;51915.06;;;-142.34;28.76
12951;BME280;6540;50.858;7.232;2022-12-08T14:33:47;51872.69;;;-142.34;27.94
12951;BME280;6540;50.858;7.232;2022-12-08T14:36:12;51902.97;;;-142.34;27.07
12951;BME280;6540;50.858;7.232;2022-12-08T14:38:40;51953.41;;;-142.34;27.99
12951;BME280;6540;50.858;7.232;2022-12-08T14:41:07;51874.72;;;-142.34;27.22
12951;BME280;6540;50.858;7.232;2022-12-08T14:43:33;51884.81;;;-142.34;27.44
12951;BME280;6540;50.858;7.232;2022-12-08T14:46:01;51894.88;;;-142.34;27.06
12951;BME280;6540;50.858;7.232;2022-12-08T14:50:59;51870.69;;;-142.34;26.88